sensor_id;sensor_type;location;lat;lon;timestamp;temperature;humidity
37788;DHT22;23627;53.302;-6.362;2023-03-01T00:01:04;6.40;99.90
37788;DHT22;23627;53.302;-6.362;2023-03-01T00:03:29;6.40;99.90
37788;DHT22;23627;53.302;-6.362;2023-03-01T00:05:55;6.40;99.90
37788;DHT22;23627;53.302;-6.362;2023-03-01T00:08:20;6.40;99.90
37788;DHT22;23627;53.302;-6.362;2023-03-01T00:10:48;6.40;99.90
37788;DHT22;23627;53.302;-6.362;2023-03-01T00:13:14;6.40;99.90
37788;DHT22;23627;53.302;-6.362;2023-03-01T00:15:40;6.40;99.90
37788;DHT22;23627;53.302;-6.362;2023-03-01T00:18:07;6.40;99.90
37788;DHT22;23627;53.302;-6.362;2023-03-01T00:20:33;6.40;99.90
37788;DHT22;23627;53.302;-6.362;2023-03-01T00:22:59;6.40;99.90
37788;DHT22;23627;53.302;-6.362;2023-03-01T00:25:24;6.40;99.90
37788;DHT22;23627;53.302;-6.362;2023-03-01T00:27:50;6.40;99.90
37788;DHT22;23627;53.302;-6.362;2023-03-01T00:30:16;6.40;99.90
37788;DHT22;23627;53.302;-6.362;2023-03-01T00:32:41;6.40;99.90
37788;DHT22;23627;53.302;-6.362;2023-03-01T00:35:07;6.40;99.90
37788;DHT22;23627;53.302;-6.362;2023-03-01T00:37:33;6.40;99.90
37788;DHT22;23627;53.302;-6.362;2023-03-01T00:39:58;6.40;99.90
37788;DHT22;23627;53.302;-6.362;2023-03-01T00:42:24;6.40;99.90
37788;DHT22;23627;53.302;-6.362;2023-03-01T00:44:49;6.40;99.90
37788;DHT22;23627;53.302;-6.362;2023-03-01T00:47:15;6.40;99.90
37788;DHT22;23627;53.302;-6.362;2023-03-01T00:49:41;6.40;99.90
37788;DHT22;23627;53.302;-6.362;2023-03-01T00:52:06;6.40;99.90
37788;DHT22;23627;53.302;-6.362;2023-03-01T00:54:32;6.40;99.90
37788;DHT22;23627;53.302;-6.362;2023-03-01T00:56:57;6.40;99.90
37788;DHT22;23627;53.302;-6.362;2023-03-01T00:59:23;6.40;99.90
37788;DHT22;23627;53.302;-6.362;2023-03-01T01:01:49;6.40;99.90
37788;DHT22;23627;53.302;-6.362;2023-03-01T01:04:14;6.40;99.90
37788;DHT22;23627;53.302;-6.362;2023-03-01T01:06:41;6.40;99.90
37788;DHT22;23627;53.302;-6.362;2023-03-01T01:09:08;6.40;99.90
37788;DHT22;23627;53.302;-6.362;2023-03-01T01:11:33;6.40;99.90
37788;DHT22;23627;53.302;-6.362;2023-03-01T01:14:02;6.40;99.90
37788;DHT22;23627;53.302;-6.362;2023-03-01T01:16:27;6.40;99.90
37788;DHT22;23627;53.302;-6.362;2023-03-01T01:18:54;6.40;99.90
37788;DHT22;23627;53.302;-6.362;2023-03-01T01:21:23;6.40;99.90
37788;DHT22;23627;53.302;-6.362;2023-03-01T01:23:49;6.40;99.90
37788;DHT22;23627;53.302;-6.362;2023-03-01T01:26:19;6.40;99.90
37788;DHT22;23627;53.302;-6.362;2023-03-01T01:28:45;6.40;99.90
37788;DHT22;23627;53.302;-6.362;2023-03-01T01:31:11;6.40;99.90
37788;DHT22;23627;53.302;-6.362;2023-03-01T01:33:37;6.40;99.90
37788;DHT22;23627;53.302;-6.362;2023-03-01T01:36:04;6.50;99.90
37788;DHT22;23627;53.302;-6.362;2023-03-01T01:38:29;6.50;99.90
37788;DHT22;23627;53.302;-6.362;2023-03-01T01:40:55;6.50;99.90
37788;DHT22;23627;53.302;-6.362;2023-03-01T01:45:46;6.50;99.90
37788;DHT22;23627;53.302;-6.362;2023-03-01T01:48:15;6.50;99.90
37788;DHT22;23627;53.302;-6.362;2023-03-01T01:50:42;6.50;99.90
37788;DHT22;23627;53.302;-6.362;2023-03-01T01:53:11;6.50;99.90
37788;DHT22;23627;53.302;-6.362;2023-03-01T01:55:39;6.50;99.90
37788;DHT22;23627;53.302;-6.362;2023-03-01T01:58:07;6.50;99.90
37788;DHT22;23627;53.302;-6.362;2023-03-01T02:00:33;6.50;99.90
37788;DHT22;23627;53.302;-6.362;2023-03-01T02:03:00;6.50;99.90
37788;DHT22;23627;53.302;-6.362;2023-03-01T02:07:58;6.50;99.90
37788;DHT22;23627;53.302;-6.362;2023-03-01T02:10:24;6.50;99.90
37788;DHT22;23627;53.302;-6.362;2023-03-01T02:12:51;6.50;99.90
37788;DHT22;23627;53.302;-6.362;2023-03-01T02:15:17;6.50;99.90
37788;DHT22;23627;53.302;-6.362;2023-03-01T02:17:42;6.50;99.90
37788;DHT22;23627;53.302;-6.362;2023-03-01T02:22:37;6.50;99.90
37788;DHT22;23627;53.302;-6.362;2023-03-01T02:27:40;6.50;99.90
37788;DHT22;23627;53.302;-6.362;2023-03-01T02:30:09;6.50;99.90
37788;DHT22;23627;53.302;-6.362;2023-03-01T02:32:38;6.50;99.90
37788;DHT22;23627;53.302;-6.362;2023-03-01T02:35:10;6.50;99.90
37788;DHT22;23627;53.302;-6.362;2023-03-01T02:37:37;6.50;99.90
37788;DHT22;23627;53.302;-6.362;2023-03-01T02:40:06;6.50;99.90
37788;DHT22;23627;53.302;-6.362;2023-03-01T02:42:33;6.50;99.90
37788;DHT22;23627;53.302;-6.362;2023-03-01T02:45:00;6.50;99.90
37788;DHT22;23627;53.302;-6.362;2023-03-01T02:47:26;6.50;99.90
37788;DHT22;23627;53.302;-6.362;2023-03-01T02:49:52;6.50;99.90
37788;DHT22;23627;53.302;-6.362;2023-03-01T02:52:21;6.50;99.90
37788;DHT22;23627;53.302;-6.362;2023-03-01T02:55:10;6.50;99.90
37788;DHT22;23627;53.302;-6.362;2023-03-01T02:57:35;6.50;99.90
37788;DHT22;23627;53.302;-6.362;2023-03-01T03:00:04;6.50;99.90
37788;DHT22;23627;53.302;-6.362;2023-03-01T03:02:34;6.50;99.90
37788;DHT22;23627;53.302;-6.362;2023-03-01T03:07:32;6.50;99.90
37788;DHT22;23627;53.302;-6.362;2023-03-01T03:09:58;6.50;99.90
37788;DHT22;23627;53.302;-6.362;2023-03-01T03:12:24;6.50;99.90
37788;DHT22;23627;53.302;-6.362;2023-03-01T03:14:49;6.50;99.90
37788;DHT22;23627;53.302;-6.362;2023-03-01T03:17:15;6.50;99.90
37788;DHT22;23627;53.302;-6.362;2023-03-01T03:19:40;6.50;99.90
37788;DHT22;23627;53.302;-6.362;2023-03-01T03:22:06;6.50;99.90
37788;DHT22;23627;53.302;-6.362;2023-03-01T03:24:34;6.50;99.90
37788;DHT22;23627;53.302;-6.362;2023-03-01T03:27:03;6.50;99.90
37788;DHT22;23627;53.302;-6.362;2023-03-01T03:29:29;6.50;99.90
37788;DHT22;23627;53.302;-6.362;2023-03-01T03:31:55;6.50;99.90
37788;DHT22;23627;53.302;-6.362;2023-03-01T03:34:20;6.50;99.90
37788;DHT22;23627;53.302;-6.362;2023-03-01T03:36:46;6.50;99.90
37788;DHT22;23627;53.302;-6.362;2023-03-01T03:39:11;6.50;99.90
37788;DHT22;23627;53.302;-6.362;2023-03-01T03:41:37;6.50;99.90
37788;DHT22;23627;53.302;-6.362;2023-03-01T03:44:02;6.50;99.90
37788;DHT22;23627;53.302;-6.362;2023-03-01T03:46:28;6.50;99.90
37788;DHT22;23627;53.302;-6.362;2023-03-01T03:48:54;6.50;99.90
37788;DHT22;23627;53.302;-6.362;2023-03-01T03:51:19;6.50;99.90
37788;DHT22;23627;53.302;-6.362;2023-03-01T03:53:47;6.50;99.90
37788;DHT22;23627;53.302;-6.362;2023-03-01T03:56:13;6.50;99.90
37788;DHT22;23627;53.302;-6.362;2023-03-01T03:58:39;6.50;99.90
37788;DHT22;23627;53.302;-6.362;2023-03-01T04:01:05;6.50;99.90
37788;DHT22;23627;53.302;-6.362;2023-03-01T04:03:30;6.50;99.90
37788;DHT22;23627;53.302;-6.362;2023-03-01T04:05:57;6.50;99.90
37788;DHT22;23627;53.302;-6.362;2023-03-01T04:08:23;6.50;99.90
37788;DHT22;23627;53.302;-6.362;2023-03-01T04:10:50;6.50;99.90
37788;DHT22;23627;53.302;-6.362;2023-03-01T04:13:17;6.50;99.90
37788;DHT22;23627;53.302;-6.362;2023-03-01T04:15:45;6.50;99.90
37788;DHT22;23627;53.302;-6.362;2023-03-01T04:18:12;6.50;99.90
37788;DHT22;23627;53.302;-6.362;2023-03-01T04:20:38;6.40;99.90
37788;DHT22;23627;53.302;-6.362;2023-03-01T04:25:54;6.50;99.90
37788;DHT22;23627;53.302;-6.362;2023-03-01T04:28:39;6.50;99.90
37788;DHT22;23627;53.302;-6.362;2023-03-01T04:31:06;6.40;99.90
37788;DHT22;23627;53.302;-6.362;2023-03-01T04:33:41;6.40;99.90
37788;DHT22;23627;53.302;-6.362;2023-03-01T04:36:08;6.40;99.90
37788;DHT22;23627;53.302;-6.362;2023-03-01T04:38:34;6.40;99.90
37788;DHT22;23627;53.302;-6.362;2023-03-01T04:41:01;6.40;99.90
37788;DHT22;23627;53.302;-6.362;2023-03-01T04:43:28;6.40;99.90
37788;DHT22;23627;53.302;-6.362;2023-03-01T04:45:54;6.40;99.90
37788;DHT22;23627;53.302;-6.362;2023-03-01T04:48:19;6.40;99.90
37788;DHT22;23627;53.302;-6.362;2023-03-01T04:50:45;6.40;99.90
37788;DHT22;23627;53.302;-6.362;2023-03-01T04:53:11;6.40;99.90
37788;DHT22;23627;53.302;-6.362;2023-03-01T04:55:36;6.40;99.90
37788;DHT22;23627;53.302;-6.362;2023-03-01T04:58:02;6.40;99.90
37788;DHT22;23627;53.302;-6.362;2023-03-01T05:00:27;6.40;99.90
37788;DHT22;23627;53.302;-6.362;2023-03-01T05:02:54;6.40;99.90
37788;DHT22;23627;53.302;-6.362;2023-03-01T05:05:21;6.40;99.90
37788;DHT22;23627;53.302;-6.362;2023-03-01T05:08:00;6.40;99.90
37788;DHT22;23627;53.302;-6.362;2023-03-01T05:10:26;6.40;99.90
37788;DHT22;23627;53.302;-6.362;2023-03-01T05:12:54;6.40;99.90
37788;DHT22;23627;53.302;-6.362;2023-03-01T05:15:20;6.40;99.90
37788;DHT22;23627;53.302;-6.362;2023-03-01T05:17:47;6.40;99.90
37788;DHT22;23627;53.302;-6.362;2023-03-01T05:20:13;6.40;99.90
37788;DHT22;23627;53.302;-6.362;2023-03-01T05:22:38;6.40;99.90
37788;DHT22;23627;53.302;-6.362;2023-03-01T05:25:20;6.40;99.90
37788;DHT22;23627;53.302;-6.362;2023-03-01T05:27:46;6.40;99.90
37788;DHT22;23627;53.302;-6.362;2023-03-01T05:30:12;6.40;99.90
37788;DHT22;23627;53.302;-6.362;2023-03-01T05:32:44;6.40;99.90
37788;DHT22;23627;53.302;-6.362;2023-03-01T05:35:14;6.40;99.90
37788;DHT22;23627;53.302;-6.362;2023-03-01T05:37:44;6.40;99.90
37788;DHT22;23627;53.302;-6.362;2023-03-01T05:40:11;6.40;99.90
37788;DHT22;23627;53.302;-6.362;2023-03-01T05:42:46;6.40;99.90
37788;DHT22;23627;53.302;-6.362;2023-03-01T05:45:12;6.40;99.90
37788;DHT22;23627;53.302;-6.362;2023-03-01T05:47:39;6.40;99.90
37788;DHT22;23627;53.302;-6.362;2023-03-01T05:50:18;6.40;99.90
37788;DHT22;23627;53.302;-6.362;2023-03-01T05:52:45;6.40;99.90
37788;DHT22;23627;53.302;-6.362;2023-03-01T05:55:11;6.40;99.90
37788;DHT22;23627;53.302;-6.362;2023-03-01T05:57:36;6.40;99.90
37788;DHT22;23627;53.302;-6.362;2023-03-01T06:00:02;6.40;99.90
37788;DHT22;23627;53.302;-6.362;2023-03-01T06:02:28;6.30;99.90
37788;DHT22;23627;53.302;-6.362;2023-03-01T06:04:54;6.40;99.90
37788;DHT22;23627;53.302;-6.362;2023-03-01T06:07:20;6.40;99.90
37788;DHT22;23627;53.302;-6.362;2023-03-01T06:09:46;6.40;99.90
37788;DHT22;23627;53.302;-6.362;2023-03-01T06:12:11;6.40;99.90
37788;DHT22;23627;53.302;-6.362;2023-03-01T06:14:37;6.40;99.90
37788;DHT22;23627;53.302;-6.362;2023-03-01T06:17:03;6.40;99.90
37788;DHT22;23627;53.302;-6.362;2023-03-01T06:19:28;6.40;99.90
37788;DHT22;23627;53.302;-6.362;2023-03-01T06:21:54;6.40;99.90
37788;DHT22;23627;53.302;-6.362;2023-03-01T06:24:20;6.30;99.90
37788;DHT22;23627;53.302;-6.362;2023-03-01T06:26:45;6.40;99.90
37788;DHT22;23627;53.302;-6.362;2023-03-01T06:29:11;6.30;99.90
37788;DHT22;23627;53.302;-6.362;2023-03-01T06:31:36;6.30;99.90
37788;DHT22;23627;53.302;-6.362;2023-03-01T06:34:02;6.30;99.90
37788;DHT22;23627;53.302;-6.362;2023-03-01T06:36:28;6.30;99.90
37788;DHT22;23627;53.302;-6.362;2023-03-01T06:38:55;6.30;99.90
37788;DHT22;23627;53.302;-6.362;2023-03-01T06:41:21;6.30;99.90
37788;DHT22;23627;53.302;-6.362;2023-03-01T06:43:46;6.30;99.90
37788;DHT22;23627;53.302;-6.362;2023-03-01T06:46:15;6.30;99.90
37788;DHT22;23627;53.302;-6.362;2023-03-01T06:48:41;6.30;99.90
37788;DHT22;23627;53.302;-6.362;2023-03-01T06:51:07;6.30;99.90
37788;DHT22;23627;53.302;-6.362;2023-03-01T06:53:32;6.30;99.90
37788;DHT22;23627;53.302;-6.362;2023-03-01T06:55:58;6.30;99.90
37788;DHT22;23627;53.302;-6.362;2023-03-01T06:58:25;6.30;99.90
37788;DHT22;23627;53.302;-6.362;2023-03-01T07:00:51;6.30;99.90
37788;DHT22;23627;53.302;-6.362;2023-03-01T07:03:16;6.30;99.90
37788;DHT22;23627;53.302;-6.362;2023-03-01T07:05:42;6.30;99.90
37788;DHT22;23627;53.302;-6.362;2023-03-01T07:08:07;6.30;99.90
37788;DHT22;23627;53.302;-6.362;2023-03-01T07:10:33;6.30;99.90
37788;DHT22;23627;53.302;-6.362;2023-03-01T07:12:59;6.30;99.90
37788;DHT22;23627;53.302;-6.362;2023-03-01T07:15:25;6.30;99.90
37788;DHT22;23627;53.302;-6.362;2023-03-01T07:17:51;6.30;99.90
37788;DHT22;23627;53.302;-6.362;2023-03-01T07:20:18;6.30;99.90
37788;DHT22;23627;53.302;-6.362;2023-03-01T07:22:44;6.30;99.90
37788;DHT22;23627;53.302;-6.362;2023-03-01T07:25:10;6.30;99.90
37788;DHT22;23627;53.302;-6.362;2023-03-01T07:27:38;6.30;99.90
37788;DHT22;23627;53.302;-6.362;2023-03-01T07:30:05;6.40;99.90
37788;DHT22;23627;53.302;-6.362;2023-03-01T07:32:33;6.40;99.90
37788;DHT22;23627;53.302;-6.362;2023-03-01T07:34:59;6.40;99.90
37788;DHT22;23627;53.302;-6.362;2023-03-01T07:37:37;6.40;99.90
37788;DHT22;23627;53.302;-6.362;2023-03-01T07:40:05;6.40;99.90
37788;DHT22;23627;53.302;-6.362;2023-03-01T07:42:31;6.40;99.90
37788;DHT22;23627;53.302;-6.362;2023-03-01T07:44:57;6.40;99.90
37788;DHT22;23627;53.302;-6.362;2023-03-01T07:47:22;6.40;99.90
37788;DHT22;23627;53.302;-6.362;2023-03-01T07:49:48;6.40;99.90
37788;DHT22;23627;53.302;-6.362;2023-03-01T07:52:14;6.40;99.90
37788;DHT22;23627;53.302;-6.362;2023-03-01T08:02:42;6.40;99.90
37788;DHT22;23627;53.302;-6.362;2023-03-01T08:05:10;6.40;99.90
37788;DHT22;23627;53.302;-6.362;2023-03-01T08:07:36;6.50;99.90
37788;DHT22;23627;53.302;-6.362;2023-03-01T08:10:01;6.50;99.90
37788;DHT22;23627;53.302;-6.362;2023-03-01T08:12:27;6.50;99.90
37788;DHT22;23627;53.302;-6.362;2023-03-01T08:14:53;6.50;99.90
37788;DHT22;23627;53.302;-6.362;2023-03-01T08:17:19;6.50;99.90
37788;DHT22;23627;53.302;-6.362;2023-03-01T08:19:44;6.50;99.90
37788;DHT22;23627;53.302;-6.362;2023-03-01T08:22:10;6.60;99.90
37788;DHT22;23627;53.302;-6.362;2023-03-01T08:24:36;6.60;99.90
37788;DHT22;23627;53.302;-6.362;2023-03-01T08:27:01;6.60;99.90
37788;DHT22;23627;53.302;-6.362;2023-03-01T08:29:28;6.60;99.90
37788;DHT22;23627;53.302;-6.362;2023-03-01T08:31:55;6.60;99.90
37788;DHT22;23627;53.302;-6.362;2023-03-01T08:34:24;6.60;99.90
37788;DHT22;23627;53.302;-6.362;2023-03-01T08:36:49;6.60;99.90
37788;DHT22;23627;53.302;-6.362;2023-03-01T08:39:17;6.60;99.90
37788;DHT22;23627;53.302;-6.362;2023-03-01T08:41:44;6.70;99.90
37788;DHT22;23627;53.302;-6.362;2023-03-01T08:44:11;6.70;99.90
37788;DHT22;23627;53.302;-6.362;2023-03-01T08:46:38;6.70;99.90
37788;DHT22;23627;53.302;-6.362;2023-03-01T08:49:08;6.80;99.90
37788;DHT22;23627;53.302;-6.362;2023-03-01T08:51:33;6.80;99.90
37788;DHT22;23627;53.302;-6.362;2023-03-01T08:54:12;6.80;99.90
37788;DHT22;23627;53.302;-6.362;2023-03-01T08:56:37;6.90;99.90
37788;DHT22;23627;53.302;-6.362;2023-03-01T08:59:03;6.90;99.90
37788;DHT22;23627;53.302;-6.362;2023-03-01T09:01:29;6.90;99.90
37788;DHT22;23627;53.302;-6.362;2023-03-01T09:03:55;6.90;99.90
37788;DHT22;23627;53.302;-6.362;2023-03-01T09:06:20;6.90;99.90
37788;DHT22;23627;53.302;-6.362;2023-03-01T09:08:46;6.90;99.90
37788;DHT22;23627;53.302;-6.362;2023-03-01T09:11:14;6.90;99.90
37788;DHT22;23627;53.302;-6.362;2023-03-01T09:13:41;6.90;99.90
37788;DHT22;23627;53.302;-6.362;2023-03-01T09:16:07;6.90;99.90
37788;DHT22;23627;53.302;-6.362;2023-03-01T09:18:33;6.90;99.90
37788;DHT22;23627;53.302;-6.362;2023-03-01T09:21:06;7.00;99.90
37788;DHT22;23627;53.302;-6.362;2023-03-01T09:23:33;7.00;99.90
37788;DHT22;23627;53.302;-6.362;2023-03-01T09:25:59;7.10;99.90
37788;DHT22;23627;53.302;-6.362;2023-03-01T09:28:25;7.10;99.90
37788;DHT22;23627;53.302;-6.362;2023-03-01T09:30:50;7.10;99.90
37788;DHT22;23627;53.302;-6.362;2023-03-01T09:33:16;7.10;99.90
37788;DHT22;23627;53.302;-6.362;2023-03-01T09:35:41;7.20;99.90
37788;DHT22;23627;53.302;-6.362;2023-03-01T09:38:12;7.20;99.90
37788;DHT22;23627;53.302;-6.362;2023-03-01T09:40:43;7.20;99.90
37788;DHT22;23627;53.302;-6.362;2023-03-01T09:45:55;7.10;99.90
37788;DHT22;23627;53.302;-6.362;2023-03-01T09:48:26;7.10;99.90
37788;DHT22;23627;53.302;-6.362;2023-03-01T09:50:52;7.10;99.90
37788;DHT22;23627;53.302;-6.362;2023-03-01T09:53:19;7.10;99.90
37788;DHT22;23627;53.302;-6.362;2023-03-01T09:55:50;7.10;99.90
37788;DHT22;23627;53.302;-6.362;2023-03-01T10:00:43;7.20;99.90
37788;DHT22;23627;53.302;-6.362;2023-03-01T10:05:37;7.30;99.90
37788;DHT22;23627;53.302;-6.362;2023-03-01T10:10:33;7.40;99.90
37788;DHT22;23627;53.302;-6.362;2023-03-01T10:13:00;7.50;99.90
37788;DHT22;23627;53.302;-6.362;2023-03-01T10:15:33;7.60;99.90
37788;DHT22;23627;53.302;-6.362;2023-03-01T10:18:16;7.70;99.90
37788;DHT22;23627;53.302;-6.362;2023-03-01T10:20:54;7.70;99.90
37788;DHT22;23627;53.302;-6.362;2023-03-01T10:23:25;7.80;99.90
37788;DHT22;23627;53.302;-6.362;2023-03-01T10:31:19;8.00;99.90
37788;DHT22;23627;53.302;-6.362;2023-03-01T10:33:45;8.10;99.90
37788;DHT22;23627;53.302;-6.362;2023-03-01T10:36:13;8.10;99.90
37788;DHT22;23627;53.302;-6.362;2023-03-01T10:38:49;8.10;99.90
37788;DHT22;23627;53.302;-6.362;2023-03-01T10:41:15;8.10;99.90
37788;DHT22;23627;53.302;-6.362;2023-03-01T10:43:48;8.10;99.90
37788;DHT22;23627;53.302;-6.362;2023-03-01T10:46:28;8.00;99.90
37788;DHT22;23627;53.302;-6.362;2023-03-01T10:51:39;8.10;99.90
37788;DHT22;23627;53.302;-6.362;2023-03-01T10:54:06;8.10;99.90
37788;DHT22;23627;53.302;-6.362;2023-03-01T10:56:50;8.20;99.90
37788;DHT22;23627;53.302;-6.362;2023-03-01T10:59:51;8.10;99.90
37788;DHT22;23627;53.302;-6.362;2023-03-01T11:02:14;8.10;99.90
37788;DHT22;23627;53.302;-6.362;2023-03-01T11:04:52;8.20;99.90
37788;DHT22;23627;53.302;-6.362;2023-03-01T11:07:21;8.20;99.90
37788;DHT22;23627;53.302;-6.362;2023-03-01T11:09:46;8.30;99.90
37788;DHT22;23627;53.302;-6.362;2023-03-01T11:12:15;8.40;99.90
37788;DHT22;23627;53.302;-6.362;2023-03-01T11:14:49;8.40;99.90
37788;DHT22;23627;53.302;-6.362;2023-03-01T11:17:18;8.60;99.90
37788;DHT22;23627;53.302;-6.362;2023-03-01T11:19:59;8.60;99.90
37788;DHT22;23627;53.302;-6.362;2023-03-01T11:22:25;8.70;99.90
37788;DHT22;23627;53.302;-6.362;2023-03-01T11:24:51;8.70;99.90
37788;DHT22;23627;53.302;-6.362;2023-03-01T11:27:22;8.70;99.90
37788;DHT22;23627;53.302;-6.362;2023-03-01T11:29:54;8.70;99.90
37788;DHT22;23627;53.302;-6.362;2023-03-01T11:32:21;8.80;99.90
37788;DHT22;23627;53.302;-6.362;2023-03-01T11:34:56;8.80;99.90
37788;DHT22;23627;53.302;-6.362;2023-03-01T11:45:08;9.00;99.90
37788;DHT22;23627;53.302;-6.362;2023-03-01T11:53:23;9.10;99.90
37788;DHT22;23627;53.302;-6.362;2023-03-01T12:06:26;9.20;99.90
37788;DHT22;23627;53.302;-6.362;2023-03-01T12:16:33;9.60;99.90
37788;DHT22;23627;53.302;-6.362;2023-03-01T12:26:25;9.50;99.90
37788;DHT22;23627;53.302;-6.362;2023-03-01T12:28:57;9.50;99.90
37788;DHT22;23627;53.302;-6.362;2023-03-01T12:48:17;9.90;99.90
37788;DHT22;23627;53.302;-6.362;2023-03-01T12:50:21;10.00;99.90
37788;DHT22;23627;53.302;-6.362;2023-03-01T12:55:32;10.30;99.90
37788;DHT22;23627;53.302;-6.362;2023-03-01T13:00:38;10.40;99.90
37788;DHT22;23627;53.302;-6.362;2023-03-01T13:08:42;10.30;99.90
37788;DHT22;23627;53.302;-6.362;2023-03-01T13:11:21;10.30;99.90
37788;DHT22;23627;53.302;-6.362;2023-03-01T13:13:40;10.40;99.90
37788;DHT22;23627;53.302;-6.362;2023-03-01T13:18:50;10.30;99.90
37788;DHT22;23627;53.302;-6.362;2023-03-01T13:21:31;10.40;99.90
37788;DHT22;23627;53.302;-6.362;2023-03-01T13:23:56;10.30;99.90
37788;DHT22;23627;53.302;-6.362;2023-03-01T13:26:22;10.20;99.90
37788;DHT22;23627;53.302;-6.362;2023-03-01T13:28:48;10.20;99.90
37788;DHT22;23627;53.302;-6.362;2023-03-01T13:33:47;10.10;99.90
37788;DHT22;23627;53.302;-6.362;2023-03-01T13:46:48;9.90;99.90
37788;DHT22;23627;53.302;-6.362;2023-03-01T13:49:14;9.90;99.90
37788;DHT22;23627;53.302;-6.362;2023-03-01T13:51:41;9.90;99.90
37788;DHT22;23627;53.302;-6.362;2023-03-01T13:54:11;9.90;99.90
37788;DHT22;23627;53.302;-6.362;2023-03-01T13:56:37;10.00;99.90
37788;DHT22;23627;53.302;-6.362;2023-03-01T13:59:24;10.00;99.90
37788;DHT22;23627;53.302;-6.362;2023-03-01T14:01:52;10.00;99.90
37788;DHT22;23627;53.302;-6.362;2023-03-01T14:04:25;9.90;99.90
37788;DHT22;23627;53.302;-6.362;2023-03-01T14:06:52;9.90;99.90
37788;DHT22;23627;53.302;-6.362;2023-03-01T14:09:33;9.80;99.90
37788;DHT22;23627;53.302;-6.362;2023-03-01T14:14:47;9.70;99.90
37788;DHT22;23627;53.302;-6.362;2023-03-01T14:19:43;9.70;99.90
37788;DHT22;23627;53.302;-6.362;2023-03-01T14:22:23;9.70;99.90
37788;DHT22;23627;53.302;-6.362;2023-03-01T14:24:51;9.80;99.90
37788;DHT22;23627;53.302;-6.362;2023-03-01T14:27:17;9.80;99.90
37788;DHT22;23627;53.302;-6.362;2023-03-01T14:29:44;9.80;99.90
37788;DHT22;23627;53.302;-6.362;2023-03-01T14:34:35;9.70;99.90
37788;DHT22;23627;53.302;-6.362;2023-03-01T14:39:44;9.60;99.90
37788;DHT22;23627;53.302;-6.362;2023-03-01T14:42:11;9.50;99.90
37788;DHT22;23627;53.302;-6.362;2023-03-01T14:44:40;9.50;99.90
37788;DHT22;23627;53.302;-6.362;2023-03-01T14:47:06;9.50;99.90
37788;DHT22;23627;53.302;-6.362;2023-03-01T14:49:32;9.50;99.90
37788;DHT22;23627;53.302;-6.362;2023-03-01T14:54:43;9.60;99.90
37788;DHT22;23627;53.302;-6.362;2023-03-01T14:57:17;9.60;99.90
37788;DHT22;23627;53.302;-6.362;2023-03-01T14:59:43;9.60;99.90
37788;DHT22;23627;53.302;-6.362;2023-03-01T15:02:11;9.60;99.90
37788;DHT22;23627;53.302;-6.362;2023-03-01T15:04:42;9.60;99.90
37788;DHT22;23627;53.302;-6.362;2023-03-01T15:07:09;9.60;99.90
37788;DHT22;23627;53.302;-6.362;2023-03-01T15:09:39;9.50;99.90
37788;DHT22;23627;53.302;-6.362;2023-03-01T15:14:49;9.50;99.90
37788;DHT22;23627;53.302;-6.362;2023-03-01T15:17:20;9.30;99.90
37788;DHT22;23627;53.302;-6.362;2023-03-01T15:19:46;9.10;99.90
37788;DHT22;23627;53.302;-6.362;2023-03-01T15:22:16;8.90;99.90
37788;DHT22;23627;53.302;-6.362;2023-03-01T15:24:41;8.80;99.90
37788;DHT22;23627;53.302;-6.362;2023-03-01T15:27:18;8.70;99.90
37788;DHT22;23627;53.302;-6.362;2023-03-01T15:32:30;8.60;99.90
37788;DHT22;23627;53.302;-6.362;2023-03-01T15:34:59;8.70;99.90
37788;DHT22;23627;53.302;-6.362;2023-03-01T15:37:38;8.80;99.90
37788;DHT22;23627;53.302;-6.362;2023-03-01T15:40:21;8.80;99.90
37788;DHT22;23627;53.302;-6.362;2023-03-01T15:42:49;8.90;99.90
37788;DHT22;23627;53.302;-6.362;2023-03-01T15:47:46;9.00;99.90
37788;DHT22;23627;53.302;-6.362;2023-03-01T15:50:16;9.10;99.90
37788;DHT22;23627;53.302;-6.362;2023-03-01T15:52:42;9.10;99.90
37788;DHT22;23627;53.302;-6.362;2023-03-01T15:55:18;9.10;99.90
37788;DHT22;23627;53.302;-6.362;2023-03-01T15:57:44;9.10;99.90
37788;DHT22;23627;53.302;-6.362;2023-03-01T16:00:10;9.10;99.90
37788;DHT22;23627;53.302;-6.362;2023-03-01T16:02:39;9.10;99.90
37788;DHT22;23627;53.302;-6.362;2023-03-01T16:05:05;9.00;99.90
37788;DHT22;23627;53.302;-6.362;2023-03-01T16:07:30;9.00;99.90
37788;DHT22;23627;53.302;-6.362;2023-03-01T16:09:56;8.90;99.90
37788;DHT22;23627;53.302;-6.362;2023-03-01T16:12:22;8.90;99.90
37788;DHT22;23627;53.302;-6.362;2023-03-01T16:14:49;8.90;99.90
37788;DHT22;23627;53.302;-6.362;2023-03-01T16:17:15;8.90;99.90
37788;DHT22;23627;53.302;-6.362;2023-03-01T16:19:41;8.90;99.90
37788;DHT22;23627;53.302;-6.362;2023-03-01T16:22:07;9.00;99.90
37788;DHT22;23627;53.302;-6.362;2023-03-01T16:24:34;9.10;99.90
37788;DHT22;23627;53.302;-6.362;2023-03-01T16:27:01;9.10;99.90
37788;DHT22;23627;53.302;-6.362;2023-03-01T16:29:27;9.10;99.90
37788;DHT22;23627;53.302;-6.362;2023-03-01T16:31:54;9.20;99.90
37788;DHT22;23627;53.302;-6.362;2023-03-01T16:34:20;9.20;99.90
37788;DHT22;23627;53.302;-6.362;2023-03-01T16:36:47;9.20;99.90
37788;DHT22;23627;53.302;-6.362;2023-03-01T16:39:12;9.20;99.90
37788;DHT22;23627;53.302;-6.362;2023-03-01T16:41:38;9.30;99.90
37788;DHT22;23627;53.302;-6.362;2023-03-01T16:44:03;9.30;99.90
37788;DHT22;23627;53.302;-6.362;2023-03-01T16:46:29;9.30;99.90
37788;DHT22;23627;53.302;-6.362;2023-03-01T16:48:55;9.30;99.90
37788;DHT22;23627;53.302;-6.362;2023-03-01T16:51:21;9.20;99.90
37788;DHT22;23627;53.302;-6.362;2023-03-01T16:53:47;9.10;99.90
37788;DHT22;23627;53.302;-6.362;2023-03-01T16:56:13;9.10;99.90
37788;DHT22;23627;53.302;-6.362;2023-03-01T16:58:39;9.00;99.90
37788;DHT22;23627;53.302;-6.362;2023-03-01T17:01:09;8.90;99.90
37788;DHT22;23627;53.302;-6.362;2023-03-01T17:03:36;8.80;99.90
37788;DHT22;23627;53.302;-6.362;2023-03-01T17:06:02;8.70;99.90
37788;DHT22;23627;53.302;-6.362;2023-03-01T17:08:28;8.70;99.90
37788;DHT22;23627;53.302;-6.362;2023-03-01T17:10:53;8.60;99.90
37788;DHT22;23627;53.302;-6.362;2023-03-01T17:13:19;8.60;99.90
37788;DHT22;23627;53.302;-6.362;2023-03-01T17:15:45;8.50;99.90
37788;DHT22;23627;53.302;-6.362;2023-03-01T17:18:10;8.50;99.90
37788;DHT22;23627;53.302;-6.362;2023-03-01T17:20:36;8.40;99.90
37788;DHT22;23627;53.302;-6.362;2023-03-01T17:23:02;8.30;99.90
37788;DHT22;23627;53.302;-6.362;2023-03-01T17:25:28;8.30;99.90
37788;DHT22;23627;53.302;-6.362;2023-03-01T17:27:53;8.30;99.90
37788;DHT22;23627;53.302;-6.362;2023-03-01T17:30:19;8.20;99.90
37788;DHT22;23627;53.302;-6.362;2023-03-01T17:32:45;8.20;99.90
37788;DHT22;23627;53.302;-6.362;2023-03-01T17:35:14;8.20;99.90
37788;DHT22;23627;53.302;-6.362;2023-03-01T17:38:01;8.10;99.90
37788;DHT22;23627;53.302;-6.362;2023-03-01T17:40:26;8.10;99.90
37788;DHT22;23627;53.302;-6.362;2023-03-01T17:42:52;8.10;99.90
37788;DHT22;23627;53.302;-6.362;2023-03-01T17:45:18;8.00;99.90
37788;DHT22;23627;53.302;-6.362;2023-03-01T17:47:43;8.00;99.90
37788;DHT22;23627;53.302;-6.362;2023-03-01T17:50:09;8.00;99.90
37788;DHT22;23627;53.302;-6.362;2023-03-01T17:52:36;7.90;99.90
37788;DHT22;23627;53.302;-6.362;2023-03-01T17:55:02;7.90;99.90
37788;DHT22;23627;53.302;-6.362;2023-03-01T17:57:28;7.80;99.90